sensor_id;sensor_type;location;lat;lon;timestamp;pressure;altitude;pressure_sealevel;temperature;humidity
70833;BME280;58452;59.418;17.962;2023-05-19T00:01:49;102713.50;;;8.81;61.21
70833;BME280;58452;59.418;17.962;2023-05-19T00:04:17;102716.34;;;8.76;61.85
70833;BME280;58452;59.418;17.962;2023-05-19T00:06:48;102717.44;;;8.72;61.76
70833;BME280;58452;59.418;17.962;2023-05-19T00:09:15;102726.28;;;8.67;61.41
70833;BME280;58452;59.418;17.962;2023-05-19T00:11:41;102727.53;;;8.60;61.98
70833;BME280;58452;59.418;17.962;2023-05-19T00:14:07;102727.09;;;8.52;62.38
70833;BME280;58452;59.418;17.962;2023-05-19T00:16:34;102728.16;;;8.48;62.45
70833;BME280;58452;59.418;17.962;2023-05-19T00:19:01;102731.72;;;8.45;62.63
70833;BME280;58452;59.418;17.962;2023-05-19T00:21:28;102731.16;;;8.40;62.67
70833;BME280;58452;59.418;17.962;2023-05-19T00:23:54;102732.22;;;8.36;63.08
70833;BME280;58452;59.418;17.962;2023-05-19T00:26:20;102737.66;;;8.30;62.77
70833;BME280;58452;59.418;17.962;2023-05-19T00:28:47;102732.78;;;8.24;62.99
70833;BME280;58452;59.418;17.962;2023-05-19T00:31:12;102736.25;;;8.23;63.16
70833;BME280;58452;59.418;17.962;2023-05-19T00:33:37;102737.41;;;8.17;62.96
70833;BME280;58452;59.418;17.962;2023-05-19T00:36:03;102736.75;;;8.14;63.14
70833;BME280;58452;59.418;17.962;2023-05-19T00:38:30;102734.72;;;8.03;63.34
70833;BME280;58452;59.418;17.962;2023-05-19T00:40:57;102742.47;;;8.02;63.76
70833;BME280;58452;59.418;17.962;2023-05-19T00:43:22;102732.50;;;7.96;63.64
70833;BME280;58452;59.418;17.962;2023-05-19T00:45:48;102733.41;;;7.95;63.32
70833;BME280;58452;59.418;17.962;2023-05-19T00:48:13;102742.13;;;7.92;63.22
70833;BME280;58452;59.418;17.962;2023-05-19T00:50:39;102743.91;;;7.90;63.76
70833;BME280;58452;59.418;17.962;2023-05-19T00:53:05;102746.69;;;7.85;64.05
70833;BME280;58452;59.418;17.962;2023-05-19T00:55:32;102745.97;;;7.83;64.26
70833;BME280;58452;59.418;17.962;2023-05-19T00:57:58;102741.13;;;7.77;64.33
70833;BME280;58452;59.418;17.962;2023-05-19T01:00:23;102743.97;;;7.71;64.38
70833;BME280;58452;59.418;17.962;2023-05-19T01:02:49;102751.78;;;7.70;64.77
70833;BME280;58452;59.418;17.962;2023-05-19T01:05:15;102747.59;;;7.67;64.64
70833;BME280;58452;59.418;17.962;2023-05-19T01:07:41;102749.47;;;7.64;64.50
70833;BME280;58452;59.418;17.962;2023-05-19T01:10:08;102747.28;;;7.56;64.49
70833;BME280;58452;59.418;17.962;2023-05-19T01:12:34;102743.19;;;7.52;64.97
70833;BME280;58452;59.418;17.962;2023-05-19T01:15:01;102739.13;;;7.48;65.04
70833;BME280;58452;59.418;17.962;2023-05-19T01:17:51;102744.47;;;7.44;64.90
70833;BME280;58452;59.418;17.962;2023-05-19T01:20:26;102750.59;;;7.41;64.48
70833;BME280;58452;59.418;17.962;2023-05-19T01:31:12;102748.09;;;7.21;65.28
70833;BME280;58452;59.418;17.962;2023-05-19T01:33:39;102750.72;;;7.19;65.16
70833;BME280;58452;59.418;17.962;2023-05-19T01:36:06;102752.00;;;7.11;65.60
70833;BME280;58452;59.418;17.962;2023-05-19T01:38:33;102761.34;;;7.12;65.51
70833;BME280;58452;59.418;17.962;2023-05-19T01:40:58;102758.91;;;7.09;65.66
70833;BME280;58452;59.418;17.962;2023-05-19T01:43:25;102757.38;;;7.05;65.48
70833;BME280;58452;59.418;17.962;2023-05-19T01:45:52;102755.75;;;7.04;65.25
70833;BME280;58452;59.418;17.962;2023-05-19T01:48:17;102754.22;;;7.00;65.46
70833;BME280;58452;59.418;17.962;2023-05-19T01:50:43;102761.13;;;6.98;65.72
70833;BME280;58452;59.418;17.962;2023-05-19T01:53:09;102758.84;;;6.92;66.14
70833;BME280;58452;59.418;17.962;2023-05-19T01:55:45;102747.94;;;6.86;66.26
70833;BME280;58452;59.418;17.962;2023-05-19T01:58:38;102761.56;;;6.88;65.88
70833;BME280;58452;59.418;17.962;2023-05-19T02:04:17;102759.13;;;6.85;66.14
70833;BME280;58452;59.418;17.962;2023-05-19T02:07:27;102766.06;;;6.83;66.49
70833;BME280;58452;59.418;17.962;2023-05-19T02:10:03;102745.31;;;6.69;66.63
70833;BME280;58452;59.418;17.962;2023-05-19T02:12:37;102772.38;;;6.76;66.77
70833;BME280;58452;59.418;17.962;2023-05-19T02:15:20;102769.28;;;6.68;66.85
70833;BME280;58452;59.418;17.962;2023-05-19T02:17:47;102761.72;;;6.65;66.62
70833;BME280;58452;59.418;17.962;2023-05-19T02:20:16;102767.88;;;6.61;67.09
70833;BME280;58452;59.418;17.962;2023-05-19T02:22:42;102776.44;;;6.62;67.48
70833;BME280;58452;59.418;17.962;2023-05-19T02:25:08;102773.81;;;6.63;67.46
70833;BME280;58452;59.418;17.962;2023-05-19T02:27:35;102770.59;;;6.58;67.45
70833;BME280;58452;59.418;17.962;2023-05-19T02:30:02;102770.53;;;6.60;67.11
70833;BME280;58452;59.418;17.962;2023-05-19T02:32:27;102765.41;;;6.60;67.14
70833;BME280;58452;59.418;17.962;2023-05-19T02:34:53;102773.03;;;6.61;67.46
70833;BME280;58452;59.418;17.962;2023-05-19T02:37:21;102771.47;;;6.57;67.26
70833;BME280;58452;59.418;17.962;2023-05-19T02:39:48;102773.16;;;6.58;67.63
70833;BME280;58452;59.418;17.962;2023-05-19T02:42:13;102774.19;;;6.54;67.37
70833;BME280;58452;59.418;17.962;2023-05-19T02:44:42;102768.16;;;6.55;67.57
70833;BME280;58452;59.418;17.962;2023-05-19T02:47:07;102773.44;;;6.52;67.71
70833;BME280;58452;59.418;17.962;2023-05-19T02:49:32;102772.50;;;6.53;67.73
70833;BME280;58452;59.418;17.962;2023-05-19T02:52:04;102769.06;;;6.54;67.77
70833;BME280;58452;59.418;17.962;2023-05-19T02:54:30;102772.47;;;6.55;67.66
70833;BME280;58452;59.418;17.962;2023-05-19T02:56:56;102773.28;;;6.55;67.54
70833;BME280;58452;59.418;17.962;2023-05-19T02:59:23;102774.13;;;6.56;67.99
70833;BME280;58452;59.418;17.962;2023-05-19T03:01:49;102777.59;;;6.55;67.77
70833;BME280;58452;59.418;17.962;2023-05-19T03:04:14;102772.41;;;6.56;67.83
70833;BME280;58452;59.418;17.962;2023-05-19T03:06:40;102769.06;;;6.54;67.90
70833;BME280;58452;59.418;17.962;2023-05-19T03:09:06;102777.44;;;6.58;67.92
70833;BME280;58452;59.418;17.962;2023-05-19T03:11:32;102774.13;;;6.56;67.88
70833;BME280;58452;59.418;17.962;2023-05-19T03:13:57;102774.19;;;6.54;68.47
70833;BME280;58452;59.418;17.962;2023-05-19T03:16:23;102778.44;;;6.55;68.72
70833;BME280;58452;59.418;17.962;2023-05-19T03:18:48;102776.63;;;6.57;68.68
70833;BME280;58452;59.418;17.962;2023-05-19T03:21:15;102779.06;;;6.60;68.75
70833;BME280;58452;59.418;17.962;2023-05-19T03:23:40;102783.16;;;6.64;68.64
70833;BME280;58452;59.418;17.962;2023-05-19T03:26:06;102779.69;;;6.65;68.57
70833;BME280;58452;59.418;17.962;2023-05-19T03:28:31;102780.59;;;6.64;68.96
70833;BME280;58452;59.418;17.962;2023-05-19T03:30:56;102783.94;;;6.66;69.16
70833;BME280;58452;59.418;17.962;2023-05-19T03:33:22;102784.69;;;6.68;69.04
70833;BME280;58452;59.418;17.962;2023-05-19T03:35:48;102783.75;;;6.71;69.53
70833;BME280;58452;59.418;17.962;2023-05-19T03:38:13;102787.16;;;6.71;69.78
70833;BME280;58452;59.418;17.962;2023-05-19T03:40:39;102790.84;;;6.64;70.55
70833;BME280;58452;59.418;17.962;2023-05-19T03:43:05;102798.94;;;6.55;72.26
70833;BME280;58452;59.418;17.962;2023-05-19T03:45:31;102794.25;;;6.65;72.03
70833;BME280;58452;59.418;17.962;2023-05-19T03:47:57;102793.88;;;6.74;72.15
70833;BME280;58452;59.418;17.962;2023-05-19T03:50:22;102796.25;;;6.78;72.87
70833;BME280;58452;59.418;17.962;2023-05-19T03:52:48;102796.53;;;6.91;73.86
70833;BME280;58452;59.418;17.962;2023-05-19T03:55:13;102796.69;;;7.07;74.15
70833;BME280;58452;59.418;17.962;2023-05-19T03:57:39;102795.22;;;7.20;74.36
70833;BME280;58452;59.418;17.962;2023-05-19T04:00:06;102792.50;;;7.23;75.59
70833;BME280;58452;59.418;17.962;2023-05-19T04:02:32;102802.09;;;7.38;75.33
70833;BME280;58452;59.418;17.962;2023-05-19T04:04:57;102791.47;;;7.46;75.81
70833;BME280;58452;59.418;17.962;2023-05-19T04:07:23;102792.31;;;7.63;76.01
70833;BME280;58452;59.418;17.962;2023-05-19T04:09:48;102798.56;;;7.76;76.53
70833;BME280;58452;59.418;17.962;2023-05-19T04:12:15;102808.28;;;7.89;77.15
70833;BME280;58452;59.418;17.962;2023-05-19T04:14:40;102807.66;;;8.01;77.10
70833;BME280;58452;59.418;17.962;2023-05-19T04:17:05;102800.25;;;8.12;77.09
70833;BME280;58452;59.418;17.962;2023-05-19T04:19:31;102805.25;;;8.15;77.61
70833;BME280;58452;59.418;17.962;2023-05-19T04:21:56;102802.97;;;8.26;77.35
70833;BME280;58452;59.418;17.962;2023-05-19T04:24:22;102802.56;;;8.35;77.37
70833;BME280;58452;59.418;17.962;2023-05-19T04:26:47;102801.03;;;8.48;77.12
70833;BME280;58452;59.418;17.962;2023-05-19T04:29:12;102803.44;;;8.51;76.62
70833;BME280;58452;59.418;17.962;2023-05-19T04:31:42;102803.16;;;8.57;76.79
70833;BME280;58452;59.418;17.962;2023-05-19T04:34:08;102803.88;;;8.76;76.68
70833;BME280;58452;59.418;17.962;2023-05-19T04:36:34;102802.78;;;8.80;76.47
70833;BME280;58452;59.418;17.962;2023-05-19T04:39:01;102800.41;;;8.93;76.27
70833;BME280;58452;59.418;17.962;2023-05-19T04:41:31;102803.09;;;9.07;75.28
70833;BME280;58452;59.418;17.962;2023-05-19T04:43:58;102800.88;;;9.17;75.41
70833;BME280;58452;59.418;17.962;2023-05-19T04:46:23;102801.88;;;9.30;74.64
70833;BME280;58452;59.418;17.962;2023-05-19T04:48:50;102809.69;;;9.44;74.62
70833;BME280;58452;59.418;17.962;2023-05-19T04:51:17;102794.47;;;9.55;73.53
70833;BME280;58452;59.418;17.962;2023-05-19T04:53:43;102804.84;;;9.69;73.13
70833;BME280;58452;59.418;17.962;2023-05-19T04:56:09;102797.50;;;9.77;73.01
70833;BME280;58452;59.418;17.962;2023-05-19T04:58:37;102802.00;;;9.90;72.35
70833;BME280;58452;59.418;17.962;2023-05-19T05:01:03;102800.91;;;9.94;72.05
70833;BME280;58452;59.418;17.962;2023-05-19T05:03:28;102802.72;;;9.92;70.91
70833;BME280;58452;59.418;17.962;2023-05-19T05:05:54;102800.94;;;10.08;70.67
70833;BME280;58452;59.418;17.962;2023-05-19T05:08:21;102800.81;;;10.25;70.65
70833;BME280;58452;59.418;17.962;2023-05-19T05:10:51;102810.06;;;10.43;70.55
70833;BME280;58452;59.418;17.962;2023-05-19T05:13:21;102809.56;;;10.52;69.49
70833;BME280;58452;59.418;17.962;2023-05-19T05:15:47;102806.97;;;10.66;69.26
70833;BME280;58452;59.418;17.962;2023-05-19T05:18:13;102808.72;;;10.66;68.44
70833;BME280;58452;59.418;17.962;2023-05-19T05:20:41;102798.66;;;10.75;67.80
70833;BME280;58452;59.418;17.962;2023-05-19T05:23:07;102814.72;;;10.95;67.52
70833;BME280;58452;59.418;17.962;2023-05-19T05:25:34;102804.56;;;11.06;67.08
70833;BME280;58452;59.418;17.962;2023-05-19T05:27:59;102802.34;;;11.14;66.72
70833;BME280;58452;59.418;17.962;2023-05-19T05:30:29;102806.94;;;11.23;65.98
70833;BME280;58452;59.418;17.962;2023-05-19T05:32:55;102814.69;;;11.37;65.40
70833;BME280;58452;59.418;17.962;2023-05-19T05:35:22;102805.16;;;11.38;64.69
70833;BME280;58452;59.418;17.962;2023-05-19T05:37:48;102806.13;;;11.49;63.84
70833;BME280;58452;59.418;17.962;2023-05-19T05:40:14;102820.47;;;11.67;63.38
70833;BME280;58452;59.418;17.962;2023-05-19T05:42:39;102812.69;;;11.82;63.31
70833;BME280;58452;59.418;17.962;2023-05-19T05:45:05;102821.13;;;11.98;61.52
70833;BME280;58452;59.418;17.962;2023-05-19T05:47:31;102820.16;;;12.13;61.98
70833;BME280;58452;59.418;17.962;2023-05-19T05:49:57;102820.69;;;12.31;61.41
70833;BME280;58452;59.418;17.962;2023-05-19T05:52:28;102816.03;;;12.48;60.53
70833;BME280;58452;59.418;17.962;2023-05-19T05:54:54;102829.50;;;12.41;58.33
70833;BME280;58452;59.418;17.962;2023-05-19T05:57:20;102833.78;;;12.54;58.08
70833;BME280;58452;59.418;17.962;2023-05-19T05:59:46;102815.53;;;12.43;56.73
70833;BME280;58452;59.418;17.962;2023-05-19T06:02:11;102834.91;;;12.50;56.43
70833;BME280;58452;59.418;17.962;2023-05-19T06:04:37;102834.69;;;12.53;56.72
70833;BME280;58452;59.418;17.962;2023-05-19T06:07:02;102833.53;;;12.45;56.25
70833;BME280;58452;59.418;17.962;2023-05-19T06:09:28;102830.84;;;12.46;55.37
70833;BME280;58452;59.418;17.962;2023-05-19T06:11:55;102832.50;;;12.60;55.98
70833;BME280;58452;59.418;17.962;2023-05-19T06:14:20;102827.22;;;12.87;55.90
70833;BME280;58452;59.418;17.962;2023-05-19T06:16:46;102839.25;;;13.13;55.53
70833;BME280;58452;59.418;17.962;2023-05-19T06:19:12;102809.25;;;13.21;54.90
70833;BME280;58452;59.418;17.962;2023-05-19T06:21:38;102825.31;;;13.50;54.70
70833;BME280;58452;59.418;17.962;2023-05-19T06:24:03;102835.03;;;13.72;55.00
70833;BME280;58452;59.418;17.962;2023-05-19T06:26:29;102833.78;;;13.89;53.78
70833;BME280;58452;59.418;17.962;2023-05-19T06:28:54;102832.97;;;13.88;52.88
70833;BME280;58452;59.418;17.962;2023-05-19T06:31:20;102834.34;;;14.05;53.83
70833;BME280;58452;59.418;17.962;2023-05-19T06:33:46;102841.13;;;13.95;52.81
70833;BME280;58452;59.418;17.962;2023-05-19T06:36:11;102835.06;;;14.18;52.05
70833;BME280;58452;59.418;17.962;2023-05-19T06:38:38;102837.75;;;14.40;51.48
70833;BME280;58452;59.418;17.962;2023-05-19T06:41:03;102831.41;;;14.44;50.44
70833;BME280;58452;59.418;17.962;2023-05-19T06:43:28;102837.31;;;14.57;51.26
70833;BME280;58452;59.418;17.962;2023-05-19T06:45:54;102834.09;;;14.43;48.99
70833;BME280;58452;59.418;17.962;2023-05-19T06:48:20;102839.44;;;14.41;47.97
70833;BME280;58452;59.418;17.962;2023-05-19T06:50:45;102831.19;;;14.70;49.03
70833;BME280;58452;59.418;17.962;2023-05-19T06:53:10;102842.28;;;14.83;48.59
70833;BME280;58452;59.418;17.962;2023-05-19T06:55:36;102842.28;;;14.83;47.85
70833;BME280;58452;59.418;17.962;2023-05-19T06:58:01;102842.50;;;14.57;46.64
70833;BME280;58452;59.418;17.962;2023-05-19T07:00:27;102839.69;;;14.72;46.95
70833;BME280;58452;59.418;17.962;2023-05-19T07:02:52;102851.16;;;14.80;46.76
70833;BME280;58452;59.418;17.962;2023-05-19T07:05:17;102848.81;;;14.88;44.96
70833;BME280;58452;59.418;17.962;2023-05-19T07:07:43;102850.47;;;14.78;46.38
70833;BME280;58452;59.418;17.962;2023-05-19T07:10:09;102852.47;;;14.86;46.09
70833;BME280;58452;59.418;17.962;2023-05-19T07:12:34;102858.84;;;14.71;43.95
70833;BME280;58452;59.418;17.962;2023-05-19T07:14:59;102854.88;;;14.43;43.14
70833;BME280;58452;59.418;17.962;2023-05-19T07:17:25;102862.50;;;14.33;44.05
70833;BME280;58452;59.418;17.962;2023-05-19T07:19:50;102856.44;;;14.22;43.79
70833;BME280;58452;59.418;17.962;2023-05-19T07:22:16;102861.41;;;14.48;44.35
70833;BME280;58452;59.418;17.962;2023-05-19T07:24:41;102849.38;;;14.70;43.50
70833;BME280;58452;59.418;17.962;2023-05-19T07:27:06;102861.06;;;14.86;44.23
70833;BME280;58452;59.418;17.962;2023-05-19T07:29:32;102864.75;;;14.73;43.38
70833;BME280;58452;59.418;17.962;2023-05-19T07:31:57;102861.66;;;15.01;42.63
70833;BME280;58452;59.418;17.962;2023-05-19T07:34:23;102859.56;;;15.06;40.70
70833;BME280;58452;59.418;17.962;2023-05-19T07:36:49;102867.56;;;14.70;39.30
70833;BME280;58452;59.418;17.962;2023-05-19T07:39:16;102873.25;;;14.75;40.97
70833;BME280;58452;59.418;17.962;2023-05-19T07:41:41;102864.97;;;14.58;42.55
70833;BME280;58452;59.418;17.962;2023-05-19T07:44:06;102865.91;;;14.57;42.37
70833;BME280;58452;59.418;17.962;2023-05-19T07:46:35;102866.19;;;14.88;42.34
70833;BME280;58452;59.418;17.962;2023-05-19T07:49:02;102876.44;;;15.23;41.36
70833;BME280;58452;59.418;17.962;2023-05-19T07:51:27;102870.63;;;15.41;41.03
70833;BME280;58452;59.418;17.962;2023-05-19T07:53:53;102870.63;;;15.63;41.60
70833;BME280;58452;59.418;17.962;2023-05-19T07:56:18;102862.53;;;15.78;40.85
70833;BME280;58452;59.418;17.962;2023-05-19T07:58:44;102865.34;;;15.86;41.57
70833;BME280;58452;59.418;17.962;2023-05-19T08:01:09;102863.94;;;15.82;40.70
70833;BME280;58452;59.418;17.962;2023-05-19T08:03:35;102865.59;;;15.83;40.11
70833;BME280;58452;59.418;17.962;2023-05-19T08:06:01;102860.44;;;15.60;40.54
70833;BME280;58452;59.418;17.962;2023-05-19T08:08:26;102863.72;;;15.85;37.88
70833;BME280;58452;59.418;17.962;2023-05-19T08:10:52;102858.63;;;16.04;38.77
70833;BME280;58452;59.418;17.962;2023-05-19T08:13:17;102854.56;;;16.11;43.52
70833;BME280;58452;59.418;17.962;2023-05-19T08:15:43;102855.34;;;16.02;41.97
70833;BME280;58452;59.418;17.962;2023-05-19T08:18:08;102863.59;;;16.07;41.30
70833;BME280;58452;59.418;17.962;2023-05-19T08:20:34;102845.34;;;16.07;39.60
70833;BME280;58452;59.418;17.962;2023-05-19T08:22:59;102858.72;;;15.82;39.96
70833;BME280;58452;59.418;17.962;2023-05-19T08:25:25;102857.81;;;15.72;41.10
70833;BME280;58452;59.418;17.962;2023-05-19T08:27:50;102865.09;;;15.89;40.52
70833;BME280;58452;59.418;17.962;2023-05-19T08:30:16;102839.25;;;15.97;41.07
70833;BME280;58452;59.418;17.962;2023-05-19T08:32:41;102852.94;;;16.10;40.66
70833;BME280;58452;59.418;17.962;2023-05-19T08:35:07;102850.13;;;16.02;39.64
70833;BME280;58452;59.418;17.962;2023-05-19T08:37:33;102847.47;;;16.13;40.03
70833;BME280;58452;59.418;17.962;2023-05-19T08:40:01;102853.56;;;16.23;39.25
70833;BME280;58452;59.418;17.962;2023-05-19T08:42:29;102843.19;;;15.91;38.90
70833;BME280;58452;59.418;17.962;2023-05-19T08:44:54;102857.63;;;15.95;40.21
70833;BME280;58452;59.418;17.962;2023-05-19T08:47:20;102852.47;;;16.05;38.93
70833;BME280;58452;59.418;17.962;2023-05-19T08:49:50;102858.47;;;15.96;39.77
70833;BME280;58452;59.418;17.962;2023-05-19T08:52:40;102856.38;;;16.31;38.97
70833;BME280;58452;59.418;17.962;2023-05-19T08:55:18;102855.94;;;16.47;39.07
70833;BME280;58452;59.418;17.962;2023-05-19T08:57:50;102847.84;;;16.71;39.58
70833;BME280;58452;59.418;17.962;2023-05-19T09:00:17;102854.56;;;16.94;39.97
70833;BME280;58452;59.418;17.962;2023-05-19T09:02:44;102843.91;;;17.16;39.68
70833;BME280;58452;59.418;17.962;2023-05-19T09:05:12;102853.03;;;17.41;38.32
70833;BME280;58452;59.418;17.962;2023-05-19T09:07:37;102852.03;;;16.83;38.93
70833;BME280;58452;59.418;17.962;2023-05-19T09:10:06;102847.75;;;17.12;40.92
70833;BME280;58452;59.418;17.962;2023-05-19T09:12:33;102853.03;;;17.31;42.36
70833;BME280;58452;59.418;17.962;2023-05-19T09:14:59;102847.53;;;17.34;38.96
70833;BME280;58452;59.418;17.962;2023-05-19T09:17:25;102833.25;;;17.38;38.86
70833;BME280;58452;59.418;17.962;2023-05-19T09:19:50;102839.66;;;17.65;38.62
70833;BME280;58452;59.418;17.962;2023-05-19T09:22:16;102806.53;;;17.75;37.83
70833;BME280;58452;59.418;17.962;2023-05-19T09:24:46;102830.13;;;18.02;37.48
70833;BME280;58452;59.418;17.962;2023-05-19T09:27:14;102835.25;;;17.94;38.22
70833;BME280;58452;59.418;17.962;2023-05-19T09:29:40;102830.56;;;18.07;38.38
70833;BME280;58452;59.418;17.962;2023-05-19T09:32:07;102830.09;;;18.31;37.64
70833;BME280;58452;59.418;17.962;2023-05-19T09:34:32;102819.25;;;18.26;39.09
70833;BME280;58452;59.418;17.962;2023-05-19T09:36:57;102828.59;;;18.28;37.47
70833;BME280;58452;59.418;17.962;2023-05-19T09:39:24;102833.81;;;18.38;36.99
70833;BME280;58452;59.418;17.962;2023-05-19T09:41:51;102834.38;;;18.13;37.61
70833;BME280;58452;59.418;17.962;2023-05-19T09:44:23;102815.34;;;18.39;38.57
70833;BME280;58452;59.418;17.962;2023-05-19T09:46:50;102828.91;;;18.16;38.52
70833;BME280;58452;59.418;17.962;2023-05-19T09:51:45;102819.63;;;18.31;38.49
70833;BME280;58452;59.418;17.962;2023-05-19T09:54:14;102822.53;;;18.37;39.25
70833;BME280;58452;59.418;17.962;2023-05-19T09:56:40;102824.09;;;18.11;39.58
70833;BME280;58452;59.418;17.962;2023-05-19T09:59:05;102827.19;;;18.43;38.90
70833;BME280;58452;59.418;17.962;2023-05-19T10:01:31;102831.13;;;18.01;38.48
70833;BME280;58452;59.418;17.962;2023-05-19T10:04:02;102823.69;;;17.87;40.05
70833;BME280;58452;59.418;17.962;2023-05-19T10:06:28;102829.09;;;17.26;39.84
70833;BME280;58452;59.418;17.962;2023-05-19T10:08:55;102829.06;;;17.66;40.44
70833;BME280;58452;59.418;17.962;2023-05-19T10:11:22;102824.25;;;18.00;41.43
70833;BME280;58452;59.418;17.962;2023-05-19T10:13:49;102821.88;;;18.06;43.86
70833;BME280;58452;59.418;17.962;2023-05-19T10:16:15;102825.47;;;17.57;41.98
70833;BME280;58452;59.418;17.962;2023-05-19T10:18:42;102826.72;;;17.63;41.85
70833;BME280;58452;59.418;17.962;2023-05-19T10:21:08;102819.53;;;17.55;42.34
70833;BME280;58452;59.418;17.962;2023-05-19T10:23:33;102822.81;;;17.48;41.56
70833;BME280;58452;59.418;17.962;2023-05-19T10:26:00;102819.56;;;17.75;42.93
70833;BME280;58452;59.418;17.962;2023-05-19T10:28:37;102809.53;;;17.80;41.97
70833;BME280;58452;59.418;17.962;2023-05-19T10:31:06;102809.63;;;18.17;41.71
70833;BME280;58452;59.418;17.962;2023-05-19T10:33:53;102808.59;;;18.46;41.89
70833;BME280;58452;59.418;17.962;2023-05-19T10:39:08;102810.34;;;18.65;41.01
70833;BME280;58452;59.418;17.962;2023-05-19T10:47:08;102808.09;;;18.33;40.50
70833;BME280;58452;59.418;17.962;2023-05-19T10:49:36;102809.81;;;17.67;41.63
70833;BME280;58452;59.418;17.962;2023-05-19T10:52:01;102805.81;;;17.92;41.92
70833;BME280;58452;59.418;17.962;2023-05-19T10:54:40;102805.78;;;18.01;40.89
70833;BME280;58452;59.418;17.962;2023-05-19T10:57:07;102800.66;;;18.29;40.74
70833;BME280;58452;59.418;17.962;2023-05-19T10:59:35;102799.84;;;18.28;41.13
70833;BME280;58452;59.418;17.962;2023-05-19T11:02:04;102810.38;;;18.46;39.57
70833;BME280;58452;59.418;17.962;2023-05-19T11:04:47;102797.38;;;18.73;39.85
70833;BME280;58452;59.418;17.962;2023-05-19T11:07:18;102798.72;;;19.04;41.61
70833;BME280;58452;59.418;17.962;2023-05-19T11:09:51;102795.75;;;19.17;39.71
70833;BME280;58452;59.418;17.962;2023-05-19T11:12:20;102800.13;;;18.99;38.28
70833;BME280;58452;59.418;17.962;2023-05-19T11:14:47;102800.13;;;18.72;39.29
70833;BME280;58452;59.418;17.962;2023-05-19T11:17:14;102804.25;;;18.74;39.52
70833;BME280;58452;59.418;17.962;2023-05-19T11:19:51;102801.59;;;19.11;39.54
70833;BME280;58452;59.418;17.962;2023-05-19T11:22:16;102798.38;;;19.44;38.66
70833;BME280;58452;59.418;17.962;2023-05-19T11:24:46;102800.09;;;19.26;38.54
70833;BME280;58452;59.418;17.962;2023-05-19T11:27:24;102802.53;;;19.73;37.81
70833;BME280;58452;59.418;17.962;2023-05-19T11:29:50;102804.38;;;19.98;36.96
70833;BME280;58452;59.418;17.962;2023-05-19T11:32:16;102812.50;;;20.30;35.57
70833;BME280;58452;59.418;17.962;2023-05-19T11:34:43;102810.13;;;19.58;34.18
70833;BME280;58452;59.418;17.962;2023-05-19T11:37:10;102813.38;;;19.78;34.96
70833;BME280;58452;59.418;17.962;2023-05-19T11:39:35;102799.53;;;19.85;34.61
70833;BME280;58452;59.418;17.962;2023-05-19T11:42:01;102799.50;;;20.03;34.14
70833;BME280;58452;59.418;17.962;2023-05-19T11:44:26;102802.09;;;20.46;35.08
70833;BME280;58452;59.418;17.962;2023-05-19T11:46:52;102813.84;;;20.34;33.76
70833;BME280;58452;59.418;17.962;2023-05-19T11:49:17;102794.88;;;20.48;33.64
70833;BME280;58452;59.418;17.962;2023-05-19T11:51:44;102803.69;;;20.73;32.60
70833;BME280;58452;59.418;17.962;2023-05-19T11:54:10;102798.25;;;20.67;32.92
70833;BME280;58452;59.418;17.962;2023-05-19T11:56:40;102798.72;;;20.28;32.93
70833;BME280;58452;59.418;17.962;2023-05-19T11:59:06;102801.88;;;20.74;33.73
70833;BME280;58452;59.418;17.962;2023-05-19T12:01:33;102809.19;;;20.96;33.34
70833;BME280;58452;59.418;17.962;2023-05-19T12:03:58;102794.88;;;21.32;33.15
70833;BME280;58452;59.418;17.962;2023-05-19T12:06:28;102791.59;;;21.30;32.48
70833;BME280;58452;59.418;17.962;2023-05-19T12:08:54;102798.03;;;21.52;32.05
70833;BME280;58452;59.418;17.962;2023-05-19T12:11:20;102793.28;;;21.96;29.84
70833;BME280;58452;59.418;17.962;2023-05-19T12:13:48;102785.72;;;22.01;29.17
70833;BME280;58452;59.418;17.962;2023-05-19T12:16:21;102802.94;;;21.79;29.15
70833;BME280;58452;59.418;17.962;2023-05-19T12:18:47;102791.97;;;21.92;32.22
70833;BME280;58452;59.418;17.962;2023-05-19T12:21:12;102797.53;;;22.05;28.77
70833;BME280;58452;59.418;17.962;2023-05-19T12:23:38;102793.09;;;21.57;30.12
70833;BME280;58452;59.418;17.962;2023-05-19T12:26:04;102795.50;;;22.39;33.30
70833;BME280;58452;59.418;17.962;2023-05-19T12:28:30;102793.78;;;22.55;30.16
70833;BME280;58452;59.418;17.962;2023-05-19T12:30:55;102791.88;;;22.40;29.15
70833;BME280;58452;59.418;17.962;2023-05-19T12:33:23;102795.44;;;22.56;29.20
70833;BME280;58452;59.418;17.962;2023-05-19T12:35:50;102800.03;;;22.62;30.00
70833;BME280;58452;59.418;17.962;2023-05-19T12:38:15;102793.91;;;22.77;29.88
70833;BME280;58452;59.418;17.962;2023-05-19T12:40:42;102794.38;;;22.26;29.49
70833;BME280;58452;59.418;17.962;2023-05-19T12:43:17;102795.56;;;22.62;31.15
70833;BME280;58452;59.418;17.962;2023-05-19T12:45:43;102800.66;;;22.64;29.63
70833;BME280;58452;59.418;17.962;2023-05-19T12:48:11;102785.31;;;23.60;31.10
70833;BME280;58452;59.418;17.962;2023-05-19T12:50:37;102789.53;;;23.69;28.52
70833;BME280;58452;59.418;17.962;2023-05-19T12:53:07;102801.69;;;23.24;27.25
70833;BME280;58452;59.418;17.962;2023-05-19T12:55:43;102788.63;;;22.22;29.67
70833;BME280;58452;59.418;17.962;2023-05-19T12:58:12;102800.13;;;22.29;29.49
70833;BME280;58452;59.418;17.962;2023-05-19T13:00:42;102789.59;;;22.29;27.54
70833;BME280;58452;59.418;17.962;2023-05-19T13:03:19;102794.53;;;22.32;29.48
70833;BME280;58452;59.418;17.962;2023-05-19T13:05:48;102788.50;;;22.71;27.79